Impacts TAF Board
For situational awareness. Not to be used for flight planning purposes.
IDs:

KFMN - Farmington/Four Corn, NM, US

Issued at 0529 UTC 30 Oct 2020
Updated at 0819 UTC 30 Oct 2020
Potential Impact None Slight Moderate High
Time0753Z 30/09Z 30/10Z 30/11Z 30/12Z 30/13Z 30/14Z 30/15Z 30/16Z 30/17Z 30/18Z 30/19Z 30/20Z 30/21Z>>
Type OBS PRVL PRVL PRVL PRVL PRVL PRVL PRVL PRVL PRVL PRVL PRVL PRVL PRVL
VIS 10 >6 >6 >6 >6 >6 >6 >6 >6 >6 >6 >6 >6 >6
CIG -- -- -- -- -- -- -- -- -- -- -- -- -- --
Cover CLR FEW FEW FEW FEW FEW FEW FEW FEW FEW FEW SCT SCT SCT
FltCat VFR VFR VFR VFR VFR VFR VFR VFR VFR VFR VFR VFR VFR VFR
WX -- -- -- -- -- -- -- -- -- -- -- -- -- --
WDir 60 70 70 70 70 70 70 70 70 70 70 260 260 260
WSpd 6 7 7 7 7 7 7 7 7 7 7 7 7 7
WGst -- -- -- -- -- -- -- -- -- -- -- -- -- --
Raw TAF
KFMN 300529Z 3006/3106 07007KT P6SM FEW250
  FM301900 26007KT P6SM SCT250
  FM310200 04006KT P6SM SCT250


Raw METAR
KFMN 300753Z AUTO 06006KT 10SM CLR 00/M03 A3030 RMK AO2 SLP256 T00001028
KFMN 300653Z AUTO 05007KT 10SM CLR 01/M03 A3030 RMK AO2 SLP256 T00061028 401611022
KFMN 300553Z AUTO 04006KT 10SM CLR 02/M02 A3030 RMK AO2 SLP257 T00221022 10144 20017 51006

METAR Board
Radar Display
Forecast Discussion
For situational awareness. Not to be used for flight planning purposes.